createdAt,value
2022-11-27T00:01:13.735Z,95.20
2022-11-27T00:03:43.945Z,95.19
2022-11-27T00:06:15.714Z,95.29
2022-11-27T00:08:46.009Z,95.41
2022-11-27T00:11:16.131Z,94.70
2022-11-27T00:13:44.160Z,94.74
2022-11-27T00:16:13.149Z,96.09
2022-11-27T00:18:42.632Z,96.19
2022-11-27T00:21:16.587Z,96.15
2022-11-27T00:23:44.697Z,97.15
2022-11-27T00:26:13.074Z,96.84
2022-11-27T00:28:41.054Z,95.54
2022-11-27T00:31:13.441Z,97.64
2022-11-27T00:33:42.819Z,97.75
2022-11-27T00:36:11.853Z,98.57
2022-11-27T00:38:39.592Z,98.03
2022-11-27T00:41:08.412Z,97.24
2022-11-27T00:43:44.086Z,98.50
2022-11-27T00:46:12.815Z,98.46
2022-11-27T00:48:42.359Z,98.78
2022-11-27T00:51:12.235Z,97.28
2022-11-27T00:53:40.279Z,97.97
2022-11-27T00:56:08.911Z,96.96
2022-11-27T00:58:36.926Z,97.71
2022-11-27T01:01:07.190Z,99.32
2022-11-27T01:03:36.854Z,98.58
2022-11-27T01:06:07.790Z,99.52
2022-11-27T01:08:35.949Z,99.49
2022-11-27T01:11:03.738Z,100.00
2022-11-27T01:13:33.616Z,99.99
2022-11-27T01:16:01.874Z,100.00
2022-11-27T01:18:30.169Z,100.00
2022-11-27T01:20:58.096Z,100.00
2022-11-27T01:23:27.740Z,100.00
2022-11-27T01:25:55.615Z,100.00
2022-11-27T01:28:24.767Z,100.00
2022-11-27T01:30:52.591Z,100.00
2022-11-27T01:33:20.791Z,100.00
2022-11-27T01:35:56.198Z,100.00
2022-11-27T01:38:24.700Z,100.00
2022-11-27T01:40:59.148Z,100.00
2022-11-27T01:43:42.213Z,100.00
2022-11-27T01:46:29.266Z,100.00
2022-11-27T01:49:01.135Z,100.00
2022-11-27T01:51:29.146Z,100.00
2022-11-27T01:53:57.522Z,100.00
2022-11-27T01:56:28.870Z,100.00
2022-11-27T01:58:58.807Z,100.00
2022-11-27T02:01:26.777Z,100.00
2022-11-27T02:03:55.181Z,100.00
2022-11-27T02:06:22.984Z,100.00
2022-11-27T02:08:50.732Z,100.00
2022-11-27T02:11:32.005Z,100.00
2022-11-27T02:14:09.935Z,100.00
2022-11-27T02:16:45.169Z,100.00
2022-11-27T02:19:23.429Z,100.00
2022-11-27T02:21:56.193Z,100.00
2022-11-27T02:24:39.729Z,100.00
2022-11-27T02:27:24.079Z,100.00
2022-11-27T02:29:57.848Z,100.00
2022-11-27T02:32:30.766Z,100.00
2022-11-27T02:35:05.378Z,100.00
2022-11-27T02:37:37.871Z,100.00
2022-11-27T02:40:11.864Z,100.00
2022-11-27T02:42:43.803Z,100.00
2022-11-27T02:45:16.203Z,100.00
2022-11-27T02:47:46.890Z,100.00
2022-11-27T02:50:20.235Z,100.00
2022-11-27T02:52:50.153Z,100.00
2022-11-27T02:55:23.992Z,100.00
2022-11-27T02:57:57.612Z,100.00
2022-11-27T03:00:26.908Z,100.00
2022-11-27T03:03:00.518Z,100.00
2022-11-27T03:05:33.722Z,100.00
2022-11-27T03:08:06.414Z,100.00
2022-11-27T03:10:41.215Z,100.00
2022-11-27T03:13:08.947Z,100.00
2022-11-27T03:15:46.248Z,100.00
2022-11-27T03:18:23.715Z,100.00
2022-11-27T03:21:01.096Z,100.00
2022-11-27T03:23:29.194Z,100.00
2022-11-27T03:25:56.940Z,100.00
2022-11-27T03:28:25.455Z,100.00
2022-11-27T03:30:54.725Z,100.00
2022-11-27T03:33:22.590Z,100.00
2022-11-27T03:35:50.396Z,100.00
2022-11-27T03:38:18.216Z,100.00
2022-11-27T03:40:53.676Z,100.00
2022-11-27T03:43:26.679Z,100.00
2022-11-27T03:46:01.117Z,100.00
2022-11-27T03:48:35.921Z,100.00
2022-11-27T03:51:11.381Z,100.00
2022-11-27T03:53:49.406Z,100.00
2022-11-27T03:56:30.247Z,100.00
2022-11-27T03:59:03.921Z,100.00
2022-11-27T04:01:33.154Z,100.00
2022-11-27T04:04:01.306Z,100.00
2022-11-27T04:06:29.201Z,100.00
2022-11-27T04:08:56.887Z,100.00
2022-11-27T04:11:24.695Z,100.00
2022-11-27T04:13:52.923Z,100.00
2022-11-27T04:16:21.148Z,100.00
2022-11-27T04:18:50.353Z,100.00
2022-11-27T04:21:18.147Z,100.00
2022-11-27T04:23:45.977Z,100.00
2022-11-27T04:26:14.253Z,100.00
2022-11-27T04:28:42.084Z,100.00
2022-11-27T04:31:10.110Z,100.00
2022-11-27T04:33:37.937Z,100.00
2022-11-27T04:36:07.899Z,100.00
2022-11-27T04:38:35.641Z,100.00
2022-11-27T04:41:03.372Z,100.00
2022-11-27T04:43:31.188Z,100.00
2022-11-27T04:45:58.884Z,100.00
2022-11-27T04:48:26.657Z,100.00
2022-11-27T04:50:55.727Z,100.00
2022-11-27T04:53:24.902Z,100.00
2022-11-27T04:55:53.225Z,100.00
2022-11-27T04:58:21.035Z,100.00
2022-11-27T05:00:48.845Z,100.00
2022-11-27T05:03:17.130Z,100.00
2022-11-27T05:05:44.959Z,100.00
2022-11-27T05:08:12.704Z,100.00
2022-11-27T05:10:41.852Z,100.00
2022-11-27T05:13:09.603Z,100.00
2022-11-27T05:15:37.434Z,100.00
2022-11-27T05:18:05.188Z,100.00
2022-11-27T05:20:32.904Z,100.00
2022-11-27T05:23:00.704Z,100.00
2022-11-27T05:25:28.448Z,100.00
2022-11-27T05:27:57.547Z,100.00
2022-11-27T05:30:25.253Z,100.00
2022-11-27T05:32:53.079Z,100.00
2022-11-27T05:35:20.820Z,100.00
2022-11-27T05:37:48.617Z,100.00
2022-11-27T05:40:16.452Z,100.00
2022-11-27T05:42:44.228Z,100.00
2022-11-27T05:45:13.394Z,100.00
2022-11-27T05:47:41.260Z,100.00
2022-11-27T05:50:09.779Z,100.00
2022-11-27T05:52:37.551Z,100.00
2022-11-27T05:55:05.949Z,100.00
2022-11-27T05:57:33.700Z,100.00
2022-11-27T06:00:01.475Z,100.00
2022-11-27T06:02:31.319Z,100.00
2022-11-27T06:04:59.237Z,100.00
2022-11-27T06:07:26.956Z,100.00
2022-11-27T06:09:54.851Z,100.00
2022-11-27T06:12:22.601Z,100.00
2022-11-27T06:14:50.321Z,100.00
2022-11-27T06:17:18.073Z,100.00
2022-11-27T06:19:47.171Z,100.00
2022-11-27T06:22:14.890Z,100.00
2022-11-27T06:24:42.789Z,100.00
2022-11-27T06:27:10.820Z,100.00
2022-11-27T06:29:39.083Z,100.00
2022-11-27T06:32:06.928Z,100.00
2022-11-27T06:34:34.808Z,100.00
2022-11-27T06:37:04.750Z,100.00
2022-11-27T06:39:33.414Z,100.00
2022-11-27T06:42:01.124Z,100.00
2022-11-27T06:44:28.872Z,100.00
2022-11-27T06:46:56.616Z,100.00
2022-11-27T06:49:24.624Z,100.00
2022-11-27T06:51:52.396Z,100.00
2022-11-27T06:54:21.519Z,100.00
2022-11-27T06:56:51.312Z,100.00
2022-11-27T06:59:19.781Z,100.00
2022-11-27T07:01:47.867Z,100.00
2022-11-27T07:04:16.846Z,100.00
2022-11-27T07:06:45.071Z,100.00
2022-11-27T07:09:13.004Z,100.00
2022-11-27T07:11:42.140Z,100.00
2022-11-27T07:14:11.145Z,100.00
2022-11-27T07:16:38.853Z,100.00
2022-11-27T07:19:08.516Z,100.00
2022-11-27T07:21:38.963Z,100.00
2022-11-27T07:24:07.404Z,100.00
2022-11-27T07:26:35.147Z,100.00
2022-11-27T07:29:04.239Z,100.00
2022-11-27T07:31:32.341Z,100.00
2022-11-27T07:34:00.503Z,100.00
2022-11-27T07:36:30.402Z,100.00
2022-11-27T07:38:59.037Z,100.00
2022-11-27T07:41:32.188Z,100.00
2022-11-27T07:44:01.596Z,100.00
2022-11-27T07:46:31.217Z,100.00
2022-11-27T07:49:00.376Z,100.00
2022-11-27T07:51:28.192Z,100.00
2022-11-27T07:53:55.860Z,100.00
2022-11-27T07:56:23.670Z,100.00
2022-11-27T07:58:51.465Z,100.00
2022-11-27T08:01:21.524Z,100.00
2022-11-27T08:03:50.743Z,100.00
2022-11-27T08:06:20.055Z,100.00
2022-11-27T08:08:48.097Z,100.00
2022-11-27T08:11:18.294Z,100.00
2022-11-27T08:13:46.169Z,100.00
2022-11-27T08:16:14.144Z,100.00
2022-11-27T08:18:42.151Z,100.00
2022-11-27T08:21:11.379Z,100.00
2022-11-27T08:23:39.184Z,100.00
2022-11-27T08:26:08.440Z,100.00
2022-11-27T08:28:37.020Z,100.00
2022-11-27T08:31:06.334Z,100.00
2022-11-27T08:33:34.168Z,100.00
2022-11-27T08:36:02.881Z,100.00
2022-11-27T08:38:32.039Z,100.00
2022-11-27T08:41:01.567Z,100.00
2022-11-27T08:43:30.267Z,100.00
2022-11-27T08:45:58.895Z,100.00
2022-11-27T08:48:27.137Z,100.00
2022-11-27T08:50:55.322Z,100.00
2022-11-27T08:53:23.092Z,100.00
2022-11-27T08:55:52.254Z,100.00
2022-11-27T08:58:20.054Z,100.00
2022-11-27T09:00:47.804Z,100.00
2022-11-27T09:03:15.664Z,100.00
2022-11-27T09:05:44.912Z,100.00
2022-11-27T09:08:16.529Z,100.00
2022-11-27T09:10:44.227Z,100.00
2022-11-27T09:13:13.447Z,100.00
2022-11-27T09:15:41.195Z,100.00
2022-11-27T09:18:08.967Z,100.00
2022-11-27T09:20:36.686Z,100.00
2022-11-27T09:23:04.503Z,100.00
2022-11-27T09:25:32.358Z,100.00
2022-11-27T09:28:00.628Z,100.00
2022-11-27T09:30:29.794Z,100.00
2022-11-27T09:32:57.480Z,100.00
2022-11-27T09:35:25.209Z,100.00
2022-11-27T09:37:52.984Z,100.00
2022-11-27T09:40:21.284Z,100.00
2022-11-27T09:42:54.789Z,100.00
2022-11-27T09:45:24.579Z,100.00
2022-11-27T09:47:57.672Z,100.00
2022-11-27T09:50:29.690Z,100.00
2022-11-27T09:53:00.787Z,100.00
2022-11-27T09:55:34.723Z,100.00
2022-11-27T09:58:07.026Z,100.00
2022-11-27T10:00:34.891Z,100.00
2022-11-27T10:03:04.369Z,100.00
2022-11-27T10:05:39.815Z,100.00
2022-11-27T10:08:23.355Z,100.00
2022-11-27T10:11:06.871Z,100.00
2022-11-27T10:13:44.903Z,100.00
2022-11-27T10:16:23.402Z,100.00
2022-11-27T10:18:56.336Z,100.00
2022-11-27T10:21:34.673Z,100.00
2022-11-27T10:24:08.896Z,100.00
2022-11-27T10:26:42.055Z,100.00
2022-11-27T10:29:26.477Z,100.00
2022-11-27T10:31:57.789Z,100.00
2022-11-27T10:34:39.206Z,100.00
2022-11-27T10:37:14.807Z,100.00
2022-11-27T10:39:47.348Z,100.00
2022-11-27T10:42:20.956Z,100.00
2022-11-27T10:45:15.829Z,100.00
2022-11-27T10:47:46.400Z,100.00
2022-11-27T10:50:16.622Z,100.00
2022-11-27T10:52:52.533Z,100.00
2022-11-27T10:55:34.560Z,100.00
2022-11-27T10:58:11.065Z,100.00
2022-11-27T11:00:38.938Z,100.00
2022-11-27T11:03:07.687Z,100.00
2022-11-27T11:06:04.152Z,100.00
2022-11-27T11:08:26.206Z,100.00
2022-11-27T11:10:58.940Z,100.00
2022-11-27T11:13:28.033Z,100.00
2022-11-27T11:16:01.345Z,100.00
2022-11-27T11:18:31.371Z,100.00
2022-11-27T11:21:02.187Z,100.00
2022-11-27T11:23:33.243Z,100.00
2022-11-27T11:26:05.703Z,100.00
2022-11-27T11:28:41.671Z,100.00
2022-11-27T11:31:14.198Z,100.00
2022-11-27T11:33:51.720Z,100.00
2022-11-27T11:36:21.357Z,100.00
2022-11-27T11:38:50.587Z,100.00
2022-11-27T11:41:19.078Z,100.00
2022-11-27T11:43:59.172Z,100.00
2022-11-27T11:46:29.982Z,100.00
2022-11-27T11:49:00.783Z,100.00
2022-11-27T11:51:46.647Z,100.00
2022-11-27T11:54:30.123Z,100.00
2022-11-27T11:57:02.546Z,100.00
2022-11-27T11:59:43.719Z,100.00
2022-11-27T12:02:40.863Z,100.00
2022-11-27T12:05:21.220Z,100.00
2022-11-27T12:08:21.288Z,100.00
2022-11-27T12:10:59.254Z,100.00
2022-11-27T12:13:39.715Z,100.00
2022-11-27T12:16:13.806Z,100.00
2022-11-27T12:18:54.501Z,100.00
2022-11-27T12:21:28.268Z,100.00
2022-11-27T12:24:13.972Z,100.00
2022-11-27T12:26:55.443Z,100.00
2022-11-27T12:29:48.644Z,100.00
2022-11-27T12:32:29.552Z,100.00
2022-11-27T12:35:17.186Z,100.00
2022-11-27T12:37:55.482Z,100.00
2022-11-27T12:40:42.470Z,100.00
2022-11-27T12:43:21.796Z,100.00
2022-11-27T12:45:56.595Z,100.00
2022-11-27T12:48:29.274Z,100.00
2022-11-27T12:51:01.473Z,100.00
2022-11-27T12:53:34.729Z,100.00
2022-11-27T12:56:10.321Z,100.00
2022-11-27T12:58:41.979Z,100.00
2022-11-27T13:01:15.637Z,100.00
2022-11-27T13:03:54.439Z,100.00
2022-11-27T13:06:26.799Z,100.00
2022-11-27T13:08:59.546Z,100.00
2022-11-27T13:11:33.486Z,100.00
2022-11-27T13:14:06.176Z,100.00
2022-11-27T13:16:38.267Z,100.00
2022-11-27T13:19:13.954Z,100.00
2022-11-27T13:21:44.115Z,100.00
2022-11-27T13:24:14.297Z,100.00
2022-11-27T13:26:47.524Z,100.00
2022-11-27T13:29:20.877Z,100.00
2022-11-27T13:31:52.404Z,100.00
2022-11-27T13:34:24.231Z,100.00
2022-11-27T13:36:58.353Z,100.00
2022-11-27T13:39:29.421Z,100.00
2022-11-27T13:42:06.733Z,100.00
2022-11-27T13:44:38.316Z,100.00
2022-11-27T13:47:10.363Z,100.00
2022-11-27T13:49:38.740Z,100.00
2022-11-27T13:52:10.801Z,100.00
2022-11-27T13:54:38.892Z,100.00
2022-11-27T13:57:18.216Z,100.00
2022-11-27T13:59:57.820Z,100.00
2022-11-27T14:02:26.623Z,100.00
2022-11-27T14:04:56.650Z,100.00
2022-11-27T14:07:36.097Z,100.00
2022-11-27T14:10:09.934Z,100.00
2022-11-27T14:12:39.334Z,100.00
2022-11-27T14:15:10.965Z,100.00
2022-11-27T14:17:41.543Z,100.00
2022-11-27T14:20:28.449Z,100.00
2022-11-27T14:23:11.803Z,100.00
2022-11-27T14:25:40.498Z,100.00
2022-11-27T14:28:15.554Z,100.00
2022-11-27T14:30:47.228Z,100.00
2022-11-27T14:33:20.407Z,100.00
2022-11-27T14:35:53.471Z,100.00
2022-11-27T14:38:21.551Z,100.00
2022-11-27T14:40:50.167Z,100.00
2022-11-27T14:43:23.812Z,100.00
2022-11-27T14:45:53.994Z,100.00
2022-11-27T14:48:24.528Z,100.00
2022-11-27T14:50:54.149Z,100.00
2022-11-27T14:53:24.861Z,100.00
2022-11-27T14:55:56.192Z,100.00
2022-11-27T14:58:27.800Z,100.00
2022-11-27T15:00:59.699Z,100.00
2022-11-27T15:03:27.925Z,100.00
2022-11-27T15:05:59.308Z,100.00
2022-11-27T15:08:28.219Z,100.00
2022-11-27T15:11:00.613Z,100.00
2022-11-27T15:13:32.761Z,100.00
2022-11-27T15:16:05.086Z,100.00
2022-11-27T15:18:37.073Z,100.00
2022-11-27T15:21:12.301Z,100.00
2022-11-27T15:23:45.843Z,100.00
2022-11-27T15:26:19.976Z,100.00
2022-11-27T15:28:54.505Z,100.00
2022-11-27T15:31:32.680Z,100.00
2022-11-27T15:34:06.751Z,100.00
2022-11-27T15:36:40.601Z,100.00
2022-11-27T15:39:21.216Z,100.00
2022-11-27T15:41:57.220Z,100.00
2022-11-27T15:44:28.756Z,100.00
2022-11-27T15:46:58.523Z,100.00
2022-11-27T15:49:26.463Z,100.00
2022-11-27T15:51:55.652Z,100.00
2022-11-27T15:54:23.581Z,100.00
2022-11-27T15:56:51.607Z,100.00
2022-11-27T15:59:20.674Z,100.00
2022-11-27T16:01:50.376Z,100.00
2022-11-27T16:04:18.285Z,100.00
2022-11-27T16:06:46.063Z,100.00
2022-11-27T16:09:13.851Z,100.00
2022-11-27T16:11:41.730Z,100.00
2022-11-27T16:14:09.436Z,100.00
2022-11-27T16:16:37.378Z,100.00
2022-11-27T16:19:07.101Z,100.00
2022-11-27T16:21:35.868Z,100.00
2022-11-27T16:24:05.687Z,100.00
2022-11-27T16:26:33.990Z,100.00
2022-11-27T16:29:01.683Z,100.00
2022-11-27T16:31:29.449Z,100.00
2022-11-27T16:33:57.192Z,100.00
2022-11-27T16:36:26.665Z,100.00
2022-11-27T16:38:55.266Z,100.00
2022-11-27T16:41:23.487Z,100.00
2022-11-27T16:43:52.553Z,100.00
2022-11-27T16:46:22.493Z,100.00
2022-11-27T16:48:51.220Z,100.00
2022-11-27T16:51:21.610Z,100.00
2022-11-27T16:53:52.311Z,100.00
2022-11-27T16:56:23.469Z,100.00
2022-11-27T16:58:51.945Z,100.00
2022-11-27T17:01:21.778Z,100.00
2022-11-27T17:03:49.945Z,100.00
2022-11-27T17:06:19.915Z,100.00
2022-11-27T17:08:47.616Z,100.00
2022-11-27T17:11:20.231Z,100.00
2022-11-27T17:13:48.932Z,100.00
2022-11-27T17:16:17.238Z,100.00
2022-11-27T17:18:46.049Z,100.00
2022-11-27T17:21:18.066Z,100.00
2022-11-27T17:23:46.964Z,100.00
2022-11-27T17:26:18.167Z,100.00
2022-11-27T17:28:46.056Z,100.00
2022-11-27T17:31:16.464Z,100.00
2022-11-27T17:33:44.651Z,100.00
2022-11-27T17:36:12.968Z,100.00
2022-11-27T17:38:40.917Z,100.00
2022-11-27T17:41:11.263Z,100.00
2022-11-27T17:43:41.064Z,100.00
2022-11-27T17:46:10.077Z,100.00
2022-11-27T17:48:38.564Z,99.69
2022-11-27T17:51:07.648Z,100.00
2022-11-27T17:53:35.966Z,100.00
2022-11-27T17:56:04.560Z,100.00
2022-11-27T17:58:32.402Z,100.00
2022-11-27T18:01:02.024Z,100.00
2022-11-27T18:03:30.883Z,100.00
2022-11-27T18:06:02.656Z,100.00
2022-11-27T18:08:30.588Z,100.00
2022-11-27T18:10:58.359Z,100.00
2022-11-27T18:13:32.231Z,100.00
2022-11-27T18:16:06.952Z,100.00
2022-11-27T18:18:34.892Z,100.00
2022-11-27T18:21:08.553Z,100.00
2022-11-27T18:23:49.683Z,100.00
2022-11-27T18:26:45.368Z,100.00
2022-11-27T18:29:14.068Z,100.00
2022-11-27T18:31:43.445Z,100.00
2022-11-27T18:34:11.272Z,100.00
2022-11-27T18:36:39.076Z,100.00
2022-11-27T18:39:06.982Z,100.00
2022-11-27T18:41:34.982Z,100.00
2022-11-27T18:44:02.747Z,100.00
2022-11-27T18:46:30.590Z,100.00
2022-11-27T18:48:59.775Z,100.00
2022-11-27T18:51:27.599Z,100.00
2022-11-27T18:53:56.409Z,100.00
2022-11-27T18:56:26.019Z,100.00
2022-11-27T18:58:54.925Z,100.00
2022-11-27T19:01:24.621Z,100.00
2022-11-27T19:03:52.769Z,100.00
2022-11-27T19:06:23.831Z,100.00
2022-11-27T19:08:52.018Z,100.00
2022-11-27T19:11:21.763Z,100.00
2022-11-27T19:13:51.031Z,100.00
2022-11-27T19:16:21.128Z,100.00
2022-11-27T19:18:49.084Z,100.00
2022-11-27T19:21:19.007Z,100.00
2022-11-27T19:23:48.412Z,100.00
2022-11-27T19:26:18.479Z,100.00
2022-11-27T19:28:49.597Z,100.00
2022-11-27T19:31:17.724Z,100.00
2022-11-27T19:33:46.024Z,100.00
2022-11-27T19:36:15.116Z,100.00
2022-11-27T19:38:43.941Z,100.00
2022-11-27T19:41:15.405Z,100.00
2022-11-27T19:43:43.888Z,100.00
2022-11-27T19:46:16.536Z,100.00
2022-11-27T19:48:44.527Z,100.00
2022-11-27T19:51:12.893Z,100.00
2022-11-27T19:53:41.688Z,100.00
2022-11-27T19:56:10.031Z,100.00
2022-11-27T19:58:41.052Z,100.00
2022-11-27T20:01:10.441Z,100.00
2022-11-27T20:03:38.360Z,100.00
2022-11-27T20:06:07.626Z,100.00
2022-11-27T20:08:35.883Z,100.00
2022-11-27T20:11:03.834Z,100.00
2022-11-27T20:13:31.605Z,100.00
2022-11-27T20:16:01.130Z,100.00
2022-11-27T20:18:28.957Z,100.00
2022-11-27T20:21:05.623Z,100.00
2022-11-27T20:23:33.657Z,100.00
2022-11-27T20:26:01.741Z,100.00
2022-11-27T20:28:29.570Z,100.00
2022-11-27T20:30:58.359Z,100.00
2022-11-27T20:33:27.859Z,100.00
2022-11-27T20:35:55.888Z,100.00
2022-11-27T20:38:24.221Z,100.00
2022-11-27T20:40:52.226Z,100.00
2022-11-27T20:43:19.981Z,100.00
2022-11-27T20:45:47.817Z,100.00
2022-11-27T20:48:15.800Z,100.00
2022-11-27T20:50:51.032Z,100.00
2022-11-27T20:53:19.583Z,100.00
2022-11-27T20:55:47.303Z,100.00
2022-11-27T20:58:15.084Z,100.00
2022-11-27T21:00:42.862Z,100.00
2022-11-27T21:03:10.608Z,100.00
2022-11-27T21:05:43.043Z,100.00
2022-11-27T21:08:12.149Z,100.00
2022-11-27T21:10:39.909Z,100.00
2022-11-27T21:13:07.726Z,100.00
2022-11-27T21:15:35.515Z,100.00
2022-11-27T21:18:03.180Z,100.00
2022-11-27T21:20:31.452Z,100.00
2022-11-27T21:22:59.189Z,100.00
2022-11-27T21:25:28.334Z,100.00
2022-11-27T21:27:57.959Z,100.00
2022-11-27T21:30:25.873Z,100.00
2022-11-27T21:32:53.683Z,100.00
2022-11-27T21:35:21.550Z,100.00
2022-11-27T21:37:49.296Z,100.00
2022-11-27T21:40:17.269Z,100.00
2022-11-27T21:42:46.448Z,100.00
2022-11-27T21:45:14.273Z,100.00
2022-11-27T21:47:42.011Z,100.00
2022-11-27T21:50:11.607Z,100.00
2022-11-27T21:52:39.414Z,100.00
2022-11-27T21:55:11.767Z,100.00
2022-11-27T21:57:40.148Z,100.00
2022-11-27T22:00:11.048Z,100.00
2022-11-27T22:02:39.018Z,100.00
2022-11-27T22:05:07.714Z,100.00
2022-11-27T22:07:36.060Z,100.00
2022-11-27T22:10:04.652Z,100.00
2022-11-27T22:12:32.415Z,100.00
2022-11-27T22:15:00.160Z,100.00
2022-11-27T22:17:29.320Z,100.00
2022-11-27T22:19:57.088Z,100.00
2022-11-27T22:22:24.827Z,100.00
2022-11-27T22:24:52.587Z,100.00
2022-11-27T22:27:20.317Z,100.00
2022-11-27T22:29:48.112Z,100.00
2022-11-27T22:32:15.871Z,100.00
2022-11-27T22:34:44.962Z,100.00
2022-11-27T22:37:12.709Z,100.00
2022-11-27T22:39:40.444Z,100.00
2022-11-27T22:42:08.203Z,100.00
2022-11-27T22:44:35.944Z,100.00
2022-11-27T22:47:03.754Z,100.00
2022-11-27T22:49:31.523Z,100.00
2022-11-27T22:52:00.598Z,100.00
2022-11-27T22:54:28.338Z,100.00
2022-11-27T22:56:56.095Z,100.00
2022-11-27T22:59:32.294Z,100.00
2022-11-27T23:02:01.169Z,100.00
2022-11-27T23:04:29.061Z,100.00
2022-11-27T23:06:56.765Z,100.00
2022-11-27T23:09:26.248Z,100.00
2022-11-27T23:11:54.288Z,100.00
2022-11-27T23:14:22.075Z,100.00
2022-11-27T23:16:50.001Z,100.00
2022-11-27T23:19:17.920Z,100.00
2022-11-27T23:21:45.792Z,100.00
2022-11-27T23:24:15.495Z,100.00
2022-11-27T23:26:45.744Z,100.00
2022-11-27T23:29:14.265Z,100.00
2022-11-27T23:31:42.560Z,100.00
2022-11-27T23:34:15.307Z,100.00
2022-11-27T23:36:43.305Z,100.00
2022-11-27T23:39:13.870Z,100.00
2022-11-27T23:41:41.801Z,100.00
2022-11-27T23:44:11.057Z,100.00
2022-11-27T23:46:38.829Z,100.00
2022-11-27T23:49:06.556Z,100.00
2022-11-27T23:51:35.097Z,100.00
2022-11-27T23:54:06.860Z,100.00
2022-11-27T23:56:34.616Z,100.00
2022-11-27T23:59:02.300Z,100.00
